Time;durP1;ratioP1;P1;durP2;ratioP2;P2;SDS_P1;SDS_P2;PMS_P1;PMS_P2;Temp;Humidity;BMP_temperature;BMP_pressure;BME280_temperature;BME280_humidity;BME280_pressure;Samples;Min_cycle;Max_cycle;Signal;HPM_P1;HPM_P2
2023/06/06 04:06:26;;;;;;;;;8.67;6.67;;;;;;;;6025405;46;10000282;-54
2023/06/06 07:54:32;;;;;;;;;20.25;17.25;;;;;;;;6308962;39;10000460;-56
2023/06/06 08:00:35;;;;;;;;;20.00;18.50;;;;;;;;6488973;39;8977;-58
2023/06/06 08:06:42;;;;;;;;;12.50;11.25;;;;;;;;6489027;31;8874;-55
2023/06/06 08:12:48;;;;;;;;;25.25;23.00;;;;;;;;6487563;31;8950;-54
2023/06/06 08:18:51;;;;;;;;;4.75;4.75;;;;;;;;6487524;46;8932;-58
2023/06/06 08:24:54;;;;;;;;;18.75;16.50;;;;;;;;6488489;39;9049;-58
2023/06/06 08:31:01;;;;;;;;;21.25;17.00;;;;;;;;6486534;46;8920;-57
2023/06/06 08:37:03;;;;;;;;;11.50;10.75;;;;;;;;6489374;39;8863;-57
2023/06/06 08:43:10;;;;;;;;;6.00;6.00;;;;;;;;6488153;31;8939;-57
2023/06/06 08:49:18;;;;;;;;;8.75;7.25;;;;;;;;6486461;39;9562;-58
2023/06/06 08:55:23;;;;;;;;;7.75;7.25;;;;;;;;6486502;46;8897;-58
2023/06/06 09:01:30;;;;;;;;;31.33;28.67;;;;;;;;6484869;46;9001;-58
2023/06/06 09:07:33;;;;;;;;;10.00;10.00;;;;;;;;6486498;39;9003;-59
2023/06/06 09:13:41;;;;;;;;;16.00;14.75;;;;;;;;6485452;39;8923;-57
2023/06/06 09:19:49;;;;;;;;;16.50;15.50;;;;;;;;6486421;39;8935;-57
2023/06/06 09:25:53;;;;;;;;;10.00;9.50;;;;;;;;6486167;39;8919;-57
2023/06/06 09:32:00;;;;;;;;;9.75;8.25;;;;;;;;6484678;39;9685;-56
2023/06/06 09:38:17;;;;;;;;;66.00;53.00;;;;;;;;6484577;39;8934;-56
2023/06/06 09:44:25;;;;;;;;;27.75;26.75;;;;;;;;6484899;39;9087;-56
2023/06/06 09:50:28;;;;;;;;;26.25;20.25;;;;;;;;6487093;31;8943;-58
2023/06/06 09:56:33;;;;;;;;;18.25;18.25;;;;;;;;6487133;39;8981;-58
2023/06/06 10:02:42;;;;;;;;;9.50;9.50;;;;;;;;6487677;39;8917;-56
2023/06/06 10:08:46;;;;;;;;;10.00;10.00;;;;;;;;6487256;39;9005;-57
2023/06/06 10:14:48;;;;;;;;;13.75;13.25;;;;;;;;6489401;31;8938;-58
2023/06/06 10:20:52;;;;;;;;;23.50;21.75;;;;;;;;6488521;39;8931;-57
2023/06/06 10:27:17;;;;;;;;;13.00;11.75;;;;;;;;6489611;39;8927;-59
2023/06/06 10:33:54;;;;;;;;;28.00;26.50;;;;;;;;6488925;31;9056;-58
2023/06/06 10:40:09;;;;;;;;;31.00;29.50;;;;;;;;6488992;46;9045;-56
2023/06/06 10:46:12;;;;;;;;;19.75;18.25;;;;;;;;6487294;39;9833;-56
2023/06/06 10:52:14;;;;;;;;;19.50;17.25;;;;;;;;6488892;39;8981;-57
2023/06/06 10:58:36;;;;;;;;;14.50;14.50;;;;;;;;6488343;39;9075;-59
2023/06/06 11:04:39;;;;;;;;;12.50;9.00;;;;;;;;6488188;46;8966;-59
2023/06/06 11:10:48;;;;;;;;;13.75;12.00;;;;;;;;6487448;39;8912;-57
2023/06/06 11:16:58;;;;;;;;;16.75;16.50;;;;;;;;6487774;46;8909;-57
2023/06/06 11:23:03;;;;;;;;;37.25;33.25;;;;;;;;6486546;39;8968;-58
2023/06/06 11:29:08;;;;;;;;;23.75;20.00;;;;;;;;6485442;39;8940;-58
2023/06/06 11:35:16;;;;;;;;;46.00;37.75;;;;;;;;6486641;39;9559;-60
2023/06/06 11:41:19;;;;;;;;;10.00;7.00;;;;;;;;6486646;39;8954;-59
2023/06/06 11:47:32;;;;;;;;;12.50;12.00;;;;;;;;6487779;36;9666;-59
2023/06/06 11:53:36;;;;;;;;;9.75;9.75;;;;;;;;6487577;46;9005;-58
2023/06/06 11:59:40;;;;;;;;;17.25;17.25;;;;;;;;6487417;39;8984;-59
2023/06/06 12:05:43;;;;;;;;;9.00;8.25;;;;;;;;6483775;31;9122;-58
2023/06/06 12:12:00;;;;;;;;;13.50;11.75;;;;;;;;6487669;39;9051;-57
2023/06/06 12:18:02;;;;;;;;;12.25;11.00;;;;;;;;6486854;39;8931;-58
2023/06/06 12:24:18;;;;;;;;;10.50;9.50;;;;;;;;6485968;46;9063;-58
2023/06/06 12:30:31;;;;;;;;;24.75;23.50;;;;;;;;6486742;46;8901;-58
2023/06/06 12:36:34;;;;;;;;;39.00;34.50;;;;;;;;6485450;46;8963;-57
2023/06/06 12:42:37;;;;;;;;;11.50;6.75;;;;;;;;6487809;39;8970;-57
2023/06/06 12:48:39;;;;;;;;;9.00;8.50;;;;;;;;6487660;46;8958;-58
2023/06/06 12:56:03;;;;;;;;;10.50;10.50;;;;;;;;6460353;46;50719;-57
2023/06/06 13:02:13;;;;;;;;;14.25;13.25;;;;;;;;6501886;31;8830;-56
2023/06/06 13:08:17;;;;;;;;;16.50;15.25;;;;;;;;6501387;38;8881;-60
2023/06/06 13:14:39;;;;;;;;;8.50;8.50;;;;;;;;6501100;38;8992;-57
2023/06/06 13:20:44;;;;;;;;;12.75;12.00;;;;;;;;6500709;46;8979;-58
2023/06/06 13:26:47;;;;;;;;;8.50;7.50;;;;;;;;6500778;38;8848;-58
2023/06/06 13:32:49;;;;;;;;;15.75;15.75;;;;;;;;6498010;38;8876;-59
2023/06/06 13:38:53;;;;;;;;;10.75;10.75;;;;;;;;6498168;38;8922;-59
2023/06/06 13:44:55;;;;;;;;;24.50;23.00;;;;;;;;6499913;38;8866;-58
2023/06/06 13:51:03;;;;;;;;;8.75;8.75;;;;;;;;6499747;38;9085;-58
2023/06/06 13:57:12;;;;;;;;;31.50;28.75;;;;;;;;6499877;38;8884;-58
2023/06/06 14:03:17;;;;;;;;;22.00;20.25;;;;;;;;6496618;39;8962;-57
2023/06/06 14:09:20;;;;;;;;;7.00;7.00;;;;;;;;6491207;39;8827;-58
2023/06/06 14:15:22;;;;;;;;;7.50;7.00;;;;;;;;6492008;46;8880;-58
2023/06/06 14:21:45;;;;;;;;;7.00;7.00;;;;;;;;6493073;39;8834;-57
2023/06/06 14:27:49;;;;;;;;;14.25;13.25;;;;;;;;6491827;46;8863;-59
2023/06/06 14:33:51;;;;;;;;;9.25;8.50;;;;;;;;6491012;46;8913;-58
2023/06/06 14:39:59;;;;;;;;;9.75;9.50;;;;;;;;6491574;31;8891;-57
2023/06/06 14:46:05;;;;;;;;;7.00;7.00;;;;;;;;6492551;31;8858;-59
2023/06/06 14:52:10;;;;;;;;;9.75;5.50;;;;;;;;6490997;39;9693;-56
2023/06/06 14:58:12;;;;;;;;;12.25;12.25;;;;;;;;6489652;46;8855;-58
2023/06/06 15:04:15;;;;;;;;;8.50;8.50;;;;;;;;6489524;31;8967;-58
2023/06/06 15:10:18;;;;;;;;;8.50;7.00;;;;;;;;6489410;39;8901;-55
2023/06/06 15:16:24;;;;;;;;;8.25;8.25;;;;;;;;6489019;46;8848;-58
2023/06/06 15:22:26;;;;;;;;;9.25;6.75;;;;;;;;6489958;39;8835;-55
2023/06/06 15:28:30;;;;;;;;;9.00;7.75;;;;;;;;6489509;39;8848;-58
2023/06/06 15:34:37;;;;;;;;;17.25;12.25;;;;;;;;6489704;46;8906;-57
2023/06/06 15:40:40;;;;;;;;;10.75;8.00;;;;;;;;6490432;39;8915;-57
2023/06/06 15:46:43;;;;;;;;;8.25;8.25;;;;;;;;6489752;31;8879;-57
2023/06/06 15:52:47;;;;;;;;;6.00;6.00;;;;;;;;6491259;39;8932;-57
2023/06/06 15:58:55;;;;;;;;;8.75;8.25;;;;;;;;6489962;39;9113;-57
2023/06/06 16:04:58;;;;;;;;;7.00;7.00;;;;;;;;6490327;39;8829;-58
2023/06/06 16:11:00;;;;;;;;;7.25;7.25;;;;;;;;6489422;46;8899;-58
2023/06/06 16:17:05;;;;;;;;;7.75;7.75;;;;;;;;6490943;39;9492;-59
2023/06/06 16:23:10;;;;;;;;;6.25;6.25;;;;;;;;6490336;39;8886;-55
2023/06/06 16:29:12;;;;;;;;;10.75;9.25;;;;;;;;6490374;31;8868;-58
2023/06/06 16:35:14;;;;;;;;;9.00;9.00;;;;;;;;6489443;39;8890;-57
2023/06/06 16:41:17;;;;;;;;;13.00;9.75;;;;;;;;6489032;39;8958;-57
2023/06/06 16:47:20;;;;;;;;;10.00;10.00;;;;;;;;6488519;47;8866;-53
2023/06/06 16:53:26;;;;;;;;;26.00;22.25;;;;;;;;6489097;39;8939;-56
2023/06/06 16:59:30;;;;;;;;;7.25;7.00;;;;;;;;6487988;39;9009;-57
2023/06/06 17:05:32;;;;;;;;;11.50;11.50;;;;;;;;6488625;46;8931;-55
2023/06/06 17:11:35;;;;;;;;;13.00;13.00;;;;;;;;6488583;47;8854;-56
2023/06/06 17:17:38;;;;;;;;;8.00;7.75;;;;;;;;6487879;47;8864;-56
2023/06/06 17:23:40;;;;;;;;;10.25;9.25;;;;;;;;6490147;39;8862;-57
2023/06/06 17:29:42;;;;;;;;;9.50;8.50;;;;;;;;6489125;39;8902;-58
2023/06/06 17:35:45;;;;;;;;;8.75;8.75;;;;;;;;6489058;39;8909;-55
2023/06/06 17:41:47;;;;;;;;;14.50;12.00;;;;;;;;6491143;39;8963;-56
2023/06/06 17:47:50;;;;;;;;;19.00;17.25;;;;;;;;6490417;39;8866;-57
2023/06/06 17:53:52;;;;;;;;;19.33;19.33;;;;;;;;6489816;39;8947;-58
2023/06/06 17:59:55;;;;;;;;;9.75;9.00;;;;;;;;6488932;46;8903;-56
2023/06/06 18:05:57;;;;;;;;;11.00;8.75;;;;;;;;6488480;39;8875;-55
2023/06/06 18:12:00;;;;;;;;;14.00;11.75;;;;;;;;6489773;31;8903;-56
2023/06/06 18:18:03;;;;;;;;;9.00;9.00;;;;;;;;6488524;46;8863;-54
2023/06/06 18:24:05;;;;;;;;;6.50;5.50;;;;;;;;6489593;39;8846;-57
2023/06/06 18:30:09;;;;;;;;;12.00;9.25;;;;;;;;6489337;39;8981;-56
2023/06/06 18:36:14;;;;;;;;;10.33;10.33;;;;;;;;6488455;39;8881;-56
2023/06/06 18:42:18;;;;;;;;;7.75;7.00;;;;;;;;6489161;39;8950;-56
2023/06/06 18:48:23;;;;;;;;;6.00;4.00;;;;;;;;6488502;39;8980;-58
2023/06/06 18:54:29;;;;;;;;;6.00;5.75;;;;;;;;6489715;39;8947;-54
2023/06/06 19:00:33;;;;;;;;;8.25;8.25;;;;;;;;6488234;39;8910;-56
2023/06/06 19:06:37;;;;;;;;;8.00;7.33;;;;;;;;6487360;39;8938;-57
2023/06/06 19:12:39;;;;;;;;;8.67;8.00;;;;;;;;6488453;31;8918;-56
2023/06/06 19:18:45;;;;;;;;;10.00;6.33;;;;;;;;6487617;36;8977;-57
2023/06/06 19:24:47;;;;;;;;;8.33;7.00;;;;;;;;6489010;39;8817;-56
2023/06/06 19:30:51;;;;;;;;;9.67;9.67;;;;;;;;6487967;39;8903;-56
2023/06/06 19:36:56;;;;;;;;;9.00;9.00;;;;;;;;6488068;39;8876;-55
2023/06/06 19:43:00;;;;;;;;;8.33;8.33;;;;;;;;6488577;39;9613;-55
2023/06/06 19:49:03;;;;;;;;;6.67;5.67;;;;;;;;6487274;39;8896;-56
2023/06/06 19:55:06;;;;;;;;;8.67;6.67;;;;;;;;6489194;39;8930;-56
2023/06/06 20:01:09;;;;;;;;;8.67;8.67;;;;;;;;6487803;39;8892;-56
2023/06/06 20:07:11;;;;;;;;;9.00;7.00;;;;;;;;6487409;31;8839;-55
2023/06/06 20:13:14;;;;;;;;;9.33;7.33;;;;;;;;6488083;39;9335;-57
2023/06/06 20:19:16;;;;;;;;;7.00;7.00;;;;;;;;6486616;46;8851;-57
2023/06/06 20:25:19;;;;;;;;;10.33;9.00;;;;;;;;6488332;39;8891;-57
2023/06/06 20:31:21;;;;;;;;;7.67;6.33;;;;;;;;6487910;39;8925;-56
2023/06/06 20:37:24;;;;;;;;;6.33;5.67;;;;;;;;6488061;39;8875;-57
2023/06/06 20:43:27;;;;;;;;;6.00;6.00;;;;;;;;6487510;46;8895;-58
2023/06/06 20:49:33;;;;;;;;;7.67;6.00;;;;;;;;6488236;31;8924;-56
2023/06/06 20:55:36;;;;;;;;;8.00;8.00;;;;;;;;6488103;39;9612;-57
2023/06/06 21:01:39;;;;;;;;;9.00;9.00;;;;;;;;6486932;31;8852;-56
2023/06/06 21:07:42;;;;;;;;;11.00;9.00;;;;;;;;6487440;39;8859;-54
2023/06/06 21:13:44;;;;;;;;;6.33;6.33;;;;;;;;6488074;46;8872;-56
2023/06/06 21:19:48;;;;;;;;;9.00;8.00;;;;;;;;6489796;39;8899;-56
2023/06/06 21:25:50;;;;;;;;;9.00;9.00;;;;;;;;6489708;39;8836;-55
2023/06/06 21:31:53;;;;;;;;;11.67;8.67;;;;;;;;6489231;39;8891;-55
2023/06/06 21:37:55;;;;;;;;;8.67;8.67;;;;;;;;6489132;46;8963;-57
2023/06/06 21:43:57;;;;;;;;;9.00;9.00;;;;;;;;6488996;46;8878;-55
2023/06/06 21:50:10;;;;;;;;;8.67;8.67;;;;;;;;6488796;46;9089;-57
2023/06/06 21:56:13;;;;;;;;;11.33;11.00;;;;;;;;6489779;39;9013;-58
2023/06/06 22:02:16;;;;;;;;;12.00;10.00;;;;;;;;6488715;39;8935;-56
2023/06/06 22:08:19;;;;;;;;;10.67;9.67;;;;;;;;6488380;46;8953;-56
2023/06/06 22:14:21;;;;;;;;;7.00;7.00;;;;;;;;6488501;46;8944;-55
2023/06/06 22:20:24;;;;;;;;;6.00;6.00;;;;;;;;6488591;46;8891;-57
2023/06/06 22:26:26;;;;;;;;;9.33;9.00;;;;;;;;6488893;46;8832;-58
2023/06/06 22:32:28;;;;;;;;;9.00;8.00;;;;;;;;6488409;46;8926;-55
2023/06/06 22:38:31;;;;;;;;;8.00;8.00;;;;;;;;6489174;39;8923;-52
2023/06/06 22:44:34;;;;;;;;;9.33;9.33;;;;;;;;6489250;31;8954;-53
2023/06/06 22:50:36;;;;;;;;;8.67;8.67;;;;;;;;6489476;39;8884;-56
2023/06/06 22:56:41;;;;;;;;;11.67;11.00;;;;;;;;6489193;39;8962;-56
2023/06/06 23:02:43;;;;;;;;;12.67;10.67;;;;;;;;6489193;39;8872;-52
2023/06/06 23:08:47;;;;;;;;;9.67;8.67;;;;;;;;6489326;31;8997;-55
2023/06/06 23:14:49;;;;;;;;;6.33;6.33;;;;;;;;6488057;39;8924;-52
2023/06/06 23:20:51;;;;;;;;;12.33;10.33;;;;;;;;6488241;46;8903;-55
2023/06/06 23:26:54;;;;;;;;;10.33;10.33;;;;;;;;6489235;31;8949;-54
2023/06/06 23:32:56;;;;;;;;;9.33;9.33;;;;;;;;6488174;39;8863;-55
2023/06/06 23:38:59;;;;;;;;;9.67;8.00;;;;;;;;6488346;39;8860;-55
2023/06/06 23:45:01;;;;;;;;;10.00;10.00;;;;;;;;6488855;31;9074;-56
2023/06/06 23:51:04;;;;;;;;;8.67;8.00;;;;;;;;6487970;46;8908;-56
2023/06/06 23:57:06;;;;;;;;;7.00;7.00;;;;;;;;6488706;46;8954;-56
